createdAt,value
2019-04-11T00:01:46.900Z,97932.89
2019-04-11T00:05:23.685Z,97935.82
2019-04-11T00:07:58.052Z,97937.63
2019-04-11T00:10:39.573Z,97928.70
2019-04-11T00:13:24.389Z,97931.13
2019-04-11T00:15:53.539Z,97938.67
2019-04-11T00:18:25.328Z,97930.80
2019-04-11T00:21:42.833Z,97927.41
2019-04-11T00:24:20.954Z,97933.34
2019-04-11T00:26:54.896Z,97923.84
2019-04-11T00:29:28.469Z,97934.43
2019-04-11T00:32:01.117Z,97933.62
2019-04-11T00:34:37.346Z,97940.77
2019-04-11T00:37:08.672Z,97939.91
2019-04-11T00:39:40.654Z,97940.77
2019-04-11T00:42:18.711Z,97950.00
2019-04-11T00:44:51.386Z,97942.81
2019-04-11T00:47:25.470Z,97940.83
2019-04-11T00:49:56.924Z,97941.63
2019-04-11T00:52:49.743Z,97944.55
2019-04-11T00:55:23.838Z,97939.34
2019-04-11T00:57:59.237Z,97941.16
2019-04-11T01:00:33.684Z,97942.73
2019-04-11T01:03:20.114Z,97945.84
2019-04-11T01:05:51.726Z,97941.02
2019-04-11T01:08:35.727Z,97943.67
2019-04-11T01:11:13.952Z,97944.45
2019-04-11T01:13:55.278Z,97945.78
2019-04-11T01:16:43.042Z,97945.20
2019-04-11T01:19:40.612Z,97944.61
2019-04-11T01:22:14.228Z,97946.96
2019-04-11T01:24:46.526Z,97951.55
2019-04-11T01:27:34.100Z,97950.09
2019-04-11T01:30:08.190Z,97952.27
2019-04-11T01:32:40.735Z,97959.45
2019-04-11T01:35:13.360Z,97954.73
2019-04-11T01:37:46.129Z,97958.80
2019-04-11T01:41:10.037Z,97954.20
2019-04-11T01:44:13.127Z,97962.88
2019-04-11T01:46:49.353Z,97962.65
2019-04-11T01:49:48.808Z,97965.05
2019-04-11T01:52:20.329Z,97972.77
2019-04-11T01:54:52.852Z,97972.48
2019-04-11T01:57:29.717Z,97964.99
2019-04-11T02:00:12.484Z,97964.84
2019-04-11T02:02:50.858Z,97974.11
2019-04-11T02:05:29.397Z,97967.52
2019-04-11T02:08:00.856Z,97964.77
2019-04-11T02:10:32.833Z,97967.45
2019-04-11T02:13:03.851Z,97967.30
2019-04-11T02:15:36.654Z,97968.29
2019-04-11T02:18:07.712Z,97962.00
2019-04-11T02:20:39.085Z,97969.09
2019-04-11T02:23:15.106Z,97969.93
2019-04-11T02:25:54.899Z,97968.53
2019-04-11T02:28:25.688Z,97972.06
2019-04-11T02:30:57.819Z,97967.77
2019-04-11T02:36:45.085Z,97973.48
2019-04-11T02:39:19.589Z,97974.13
2019-04-11T02:41:50.784Z,97976.39
2019-04-11T02:44:45.494Z,97981.87
2019-04-11T02:47:01.754Z,97980.09
2019-04-11T02:49:28.014Z,97987.97
2019-04-11T02:52:00.637Z,97988.16
2019-04-11T02:54:33.533Z,97987.71
2019-04-11T02:57:05.894Z,97991.44
2019-04-11T02:59:38.766Z,97989.87
2019-04-11T03:02:13.009Z,98002.31
2019-04-11T03:04:43.924Z,98000.44
2019-04-11T03:07:24.609Z,98001.03
2019-04-11T03:09:56.504Z,97994.68
2019-04-11T03:12:29.584Z,97997.99
2019-04-11T03:15:16.688Z,98003.40
2019-04-11T03:17:38.481Z,98003.72
2019-04-11T03:20:20.933Z,97996.02
2019-04-11T03:22:42.524Z,98000.72
2019-04-11T03:25:22.543Z,98004.91
2019-04-11T03:27:54.182Z,98002.37
2019-04-11T03:30:42.130Z,98006.92
2019-04-11T03:33:58.247Z,98007.98
2019-04-11T03:36:28.990Z,98005.78
2019-04-11T03:38:33.119Z,98007.58
2019-04-11T03:40:59.594Z,98011.21
2019-04-11T03:43:26.145Z,98009.02
2019-04-11T03:46:11.898Z,98006.55
2019-04-11T03:48:39.828Z,98013.81
2019-04-11T03:50:57.414Z,98013.30
2019-04-11T03:53:29.929Z,98021.47
2019-04-11T03:56:03.642Z,98024.25
2019-04-11T03:58:34.942Z,98022.51
2019-04-11T04:01:10.942Z,98019.37
2019-04-11T04:03:48.863Z,98017.50
2019-04-11T04:06:19.138Z,98020.91
2019-04-11T04:08:50.880Z,98029.46
2019-04-11T04:11:27.116Z,98033.97
2019-04-11T04:14:19.936Z,98041.09
2019-04-11T04:17:19.158Z,98040.69
2019-04-11T04:20:08.825Z,98037.73
2019-04-11T04:22:49.703Z,98045.50
2019-04-11T04:25:21.489Z,98048.97
2019-04-11T04:27:54.671Z,98054.66
2019-04-11T04:30:27.667Z,98057.02
2019-04-11T04:33:20.184Z,98056.72
2019-04-11T04:35:52.443Z,98061.84
2019-04-11T04:38:31.574Z,98053.70
2019-04-11T04:41:16.934Z,98058.07
2019-04-11T04:43:38.830Z,98059.21
2019-04-11T04:46:38.146Z,98067.83
2019-04-11T04:48:51.559Z,98068.50
2019-04-11T04:51:24.602Z,98069.86
2019-04-11T04:53:57.863Z,98075.15
2019-04-11T04:56:41.951Z,98073.48
2019-04-11T04:59:14.612Z,98074.88
2019-04-11T05:17:36.392Z,98071.75
2019-04-11T05:23:21.404Z,98077.15
2019-04-11T05:26:21.573Z,98075.06
2019-04-11T05:29:19.615Z,98082.94
2019-04-11T05:31:59.403Z,98085.73
2019-04-11T05:34:32.789Z,98092.49
2019-04-11T05:40:57.084Z,98092.34
2019-04-11T05:47:14.532Z,98104.78
2019-04-11T05:50:09.215Z,98100.98
2019-04-11T05:52:50.382Z,98113.50
2019-04-11T05:55:55.279Z,98098.69
2019-04-11T05:59:24.449Z,98106.50
2019-04-11T06:02:07.633Z,98111.04
2019-04-11T06:04:50.109Z,98106.53
2019-04-11T06:08:21.118Z,98110.14
2019-04-11T06:11:23.676Z,98110.42
2019-04-11T06:14:13.192Z,98113.05
2019-04-11T06:16:57.603Z,98116.27
2019-04-11T06:20:02.126Z,98110.97
2019-04-11T06:22:42.191Z,98116.81
2019-04-11T06:25:39.068Z,98114.78
2019-04-11T06:28:28.964Z,98116.49
2019-04-11T06:31:24.541Z,98119.41
2019-04-11T06:34:07.195Z,98124.97
2019-04-11T06:37:12.085Z,98132.47
2019-04-11T06:40:07.844Z,98134.88
2019-04-11T06:42:57.586Z,98131.44
2019-04-11T06:45:59.127Z,98133.36
2019-04-11T06:48:54.483Z,98134.48
2019-04-11T06:51:32.341Z,98139.67
2019-04-11T06:54:21.778Z,98144.27
2019-04-11T06:56:53.817Z,98142.53
2019-04-11T06:59:28.387Z,98145.14
2019-04-11T07:02:11.578Z,98145.87
2019-04-11T07:04:42.166Z,98146.70
2019-04-11T07:07:13.408Z,98150.23
2019-04-11T07:09:49.219Z,98150.37
2019-04-11T07:12:38.575Z,98153.08
2019-04-11T07:15:14.437Z,98157.41
2019-04-11T07:18:06.073Z,98155.17
2019-04-11T07:21:04.027Z,98151.73
2019-04-11T07:23:53.411Z,98147.67
2019-04-11T07:26:48.677Z,98148.59
2019-04-11T07:29:37.915Z,98156.20
2019-04-11T07:32:17.942Z,98155.05
2019-04-11T07:35:06.383Z,98156.13
2019-04-11T07:37:49.163Z,98161.03
2019-04-11T07:40:39.469Z,98165.20
2019-04-11T07:43:17.591Z,98168.02
2019-04-11T07:46:10.170Z,98159.86
2019-04-11T07:48:44.626Z,98157.03
2019-04-11T07:51:40.873Z,98155.41
2019-04-11T07:54:22.828Z,98158.80
2019-04-11T07:56:55.917Z,98165.16
2019-04-11T07:59:46.810Z,98166.37
2019-04-11T08:02:35.514Z,98169.86
2019-04-11T08:05:30.229Z,98169.51
2019-04-11T08:08:26.808Z,98171.51
2019-04-11T08:11:06.779Z,98176.02
2019-04-11T08:13:56.286Z,98180.92
2019-04-11T08:16:53.238Z,98179.87
2019-04-11T08:19:42.769Z,98182.59
2019-04-11T08:22:35.857Z,98178.95
2019-04-11T08:25:25.118Z,98179.96
2019-04-11T08:28:01.313Z,98185.49
2019-04-11T08:30:39.926Z,98185.58
2019-04-11T08:33:10.830Z,98176.55
2019-04-11T08:36:02.000Z,98182.18
2019-04-11T08:38:34.649Z,98191.54
2019-04-11T08:41:27.509Z,98192.64
2019-04-11T08:43:59.459Z,98194.17
2019-04-11T08:47:41.938Z,98196.20
2019-04-11T08:50:02.508Z,98187.47
2019-04-11T08:53:37.203Z,98200.44
2019-04-11T08:56:24.794Z,98196.73
2019-04-11T08:59:47.215Z,98206.78
2019-04-11T09:02:22.190Z,98204.47
2019-04-11T09:05:19.657Z,98207.12
2019-04-11T09:08:20.415Z,98207.47
2019-04-11T09:11:15.096Z,98199.00
2019-04-11T09:14:12.304Z,98211.08
2019-04-11T09:17:05.905Z,98203.42
2019-04-11T09:19:49.336Z,98212.74
2019-04-11T09:22:33.109Z,98209.37
2019-04-11T09:25:37.606Z,98199.64
2019-04-11T09:28:19.698Z,98206.59
2019-04-11T09:31:25.463Z,98200.63
2019-04-11T09:34:18.186Z,98209.44
2019-04-11T09:37:06.238Z,98203.22
2019-04-11T09:40:24.288Z,98213.02
2019-04-11T09:43:11.514Z,98212.36
2019-04-11T09:46:10.378Z,98200.31
2019-04-11T09:48:54.546Z,98200.92
2019-04-11T09:51:38.067Z,98197.95
2019-04-11T09:54:24.002Z,98205.66
2019-04-11T09:57:17.069Z,98207.72
2019-04-11T10:00:12.397Z,98202.34
2019-04-11T10:02:54.335Z,98196.05
2019-04-11T10:05:36.833Z,98199.30
2019-04-11T10:08:33.134Z,98202.75
2019-04-11T10:11:34.469Z,98206.82
2019-04-11T10:14:09.313Z,98208.34
2019-04-11T10:16:58.168Z,98196.84
2019-04-11T10:19:58.305Z,98201.30
2019-04-11T10:22:49.023Z,98205.30
2019-04-11T10:25:30.251Z,98203.84
2019-04-11T10:28:29.878Z,98200.39
2019-04-11T10:31:12.653Z,98204.14
2019-04-11T10:34:14.733Z,98197.52
2019-04-11T10:37:09.741Z,98202.95
2019-04-11T10:40:00.122Z,98210.25
2019-04-11T10:42:32.725Z,98203.88
2019-04-11T10:46:09.239Z,98202.52
2019-04-11T10:49:05.373Z,98200.42
2019-04-11T10:52:08.470Z,98197.41
2019-04-11T10:54:41.122Z,98206.86
2019-04-11T10:57:44.650Z,98198.20
2019-04-11T11:00:37.610Z,98205.30
2019-04-11T11:03:24.426Z,98209.05
2019-04-11T11:09:37.798Z,98208.28
2019-04-11T11:12:51.863Z,98202.21
2019-04-11T11:15:33.972Z,98202.67
2019-04-11T11:21:07.445Z,98202.92
2019-04-11T11:24:07.170Z,98205.30
2019-04-11T11:26:39.119Z,98200.95
2019-04-11T11:29:37.140Z,98204.78
2019-04-11T11:32:13.250Z,98199.16
2019-04-11T11:34:53.384Z,98204.53
2019-04-11T11:37:41.877Z,98205.71
2019-04-11T11:40:50.085Z,98206.82
2019-04-11T11:43:25.942Z,98218.98
2019-04-11T11:46:16.116Z,98208.36
2019-04-11T11:48:54.066Z,98210.98
2019-04-11T11:52:24.893Z,98211.44
2019-04-11T11:54:59.844Z,98209.92
2019-04-11T11:57:44.854Z,98206.77
2019-04-11T12:00:33.379Z,98209.39
2019-04-11T12:03:35.263Z,98221.83
2019-04-11T12:06:59.757Z,98218.45
2019-04-11T12:09:42.513Z,98211.56
2019-04-11T12:12:21.911Z,98210.91
2019-04-11T12:15:22.469Z,98216.81
2019-04-11T12:18:18.071Z,98215.80
2019-04-11T12:20:56.277Z,98199.55
2019-04-11T12:23:48.712Z,98215.64
2019-04-11T12:26:12.545Z,98210.75
2019-04-11T12:29:08.303Z,98208.16
2019-04-11T12:31:40.326Z,98207.57
2019-04-11T12:34:30.296Z,98210.13
2019-04-11T12:37:06.191Z,98212.50
2019-04-11T12:39:59.137Z,98206.48
2019-04-11T12:42:33.583Z,98212.92
2019-04-11T12:45:44.281Z,98206.53
2019-04-11T12:48:15.623Z,98213.10
2019-04-11T12:51:03.974Z,98214.90
2019-04-11T12:53:34.680Z,98210.95
2019-04-11T12:56:24.173Z,98202.46
2019-04-11T12:59:19.761Z,98200.19
2019-04-11T13:02:08.150Z,98199.91
2019-04-11T13:04:45.019Z,98195.69
2019-04-11T13:07:34.632Z,98201.00
2019-04-11T13:10:24.171Z,98199.83
2019-04-11T13:13:20.470Z,98200.65
2019-04-11T13:16:12.212Z,98200.06
2019-04-11T13:19:00.345Z,98192.72
2019-04-11T13:21:56.124Z,98193.55
2019-04-11T13:24:48.634Z,98206.95
2019-04-11T13:27:25.168Z,98197.59
2019-04-11T13:30:18.179Z,98194.52
2019-04-11T13:33:03.736Z,98192.14
2019-04-11T13:36:02.882Z,98188.76
2019-04-11T13:38:41.936Z,98192.14
2019-04-11T13:41:44.033Z,98195.53
2019-04-11T13:44:19.918Z,98190.55
2019-04-11T13:47:20.442Z,98203.36
2019-04-11T13:49:53.582Z,98202.83
2019-04-11T13:52:46.551Z,98209.52
2019-04-11T13:55:28.272Z,98204.94
2019-04-11T13:58:18.891Z,98205.17
2019-04-11T14:00:51.467Z,98201.77
2019-04-11T14:03:44.142Z,98203.59
2019-04-11T14:06:25.640Z,98204.39
2019-04-11T14:09:22.067Z,98203.70
2019-04-11T14:11:54.538Z,98206.09
2019-04-11T14:15:05.988Z,98216.23
2019-04-11T14:18:12.208Z,98204.55
2019-04-11T14:20:51.934Z,98203.48
2019-04-11T14:23:45.281Z,98197.42
2019-04-11T14:26:36.348Z,98196.73
2019-04-11T14:29:26.620Z,98188.61
2019-04-11T14:32:34.535Z,98195.48
2019-04-11T14:35:39.735Z,98187.16
2019-04-11T14:38:12.666Z,98190.18
2019-04-11T14:41:05.170Z,98192.55
2019-04-11T14:43:38.876Z,98200.82
2019-04-11T14:46:28.655Z,98195.50
2019-04-11T14:49:10.431Z,98193.63
2019-04-11T14:51:58.703Z,98197.55
2019-04-11T14:54:49.856Z,98193.75
2019-04-11T14:57:54.620Z,98193.75
2019-04-11T15:00:36.615Z,98209.80
2019-04-11T15:03:35.313Z,98202.37
2019-04-11T15:06:34.660Z,98202.78
2019-04-11T15:09:31.947Z,98206.16
2019-04-11T15:12:23.184Z,98197.80
2019-04-11T15:15:15.869Z,98211.33
2019-04-11T15:17:47.161Z,98205.00
2019-04-11T15:20:42.376Z,98205.80
2019-04-11T15:23:24.706Z,98204.75
2019-04-11T15:26:14.446Z,98197.48
2019-04-11T15:29:07.318Z,98202.95
2019-04-11T15:31:55.764Z,98195.44
2019-04-11T15:34:38.547Z,98207.16
2019-04-11T15:37:28.642Z,98197.08
2019-04-11T15:40:15.011Z,98204.22
2019-04-11T15:42:57.379Z,98202.52
2019-04-11T15:45:53.503Z,98199.80
2019-04-11T15:49:49.153Z,98198.28
2019-04-11T15:52:30.507Z,98197.83
2019-04-11T15:55:24.533Z,98220.75
2019-04-11T15:57:57.393Z,98214.37
2019-04-11T16:01:04.054Z,98214.87
2019-04-11T16:03:37.872Z,98205.00
2019-04-11T16:06:26.245Z,98208.05
2019-04-11T16:09:00.556Z,98203.21
2019-04-11T16:11:53.843Z,98203.55
2019-04-11T16:14:36.142Z,98205.36
2019-04-11T16:17:35.175Z,98200.52
2019-04-11T16:20:29.439Z,98197.98
2019-04-11T16:23:27.044Z,98200.30
2019-04-11T16:26:09.582Z,98194.98
2019-04-11T16:29:12.993Z,98198.09
2019-04-11T16:31:52.897Z,98196.33
2019-04-11T16:34:51.561Z,98198.61
2019-04-11T16:37:21.571Z,98200.23
2019-04-11T16:40:11.131Z,98197.48
2019-04-11T16:42:44.504Z,98195.00
2019-04-11T16:45:37.837Z,98198.31
2019-04-11T16:49:01.898Z,98205.70
2019-04-11T16:51:42.303Z,98206.13
2019-04-11T16:54:15.626Z,98206.20
2019-04-11T16:56:46.830Z,98202.95
2019-04-11T16:59:17.840Z,98204.72
2019-04-11T17:01:53.416Z,98203.55
2019-04-11T17:04:25.814Z,98208.71
2019-04-11T17:07:26.633Z,98204.87
2019-04-11T17:09:57.942Z,98202.59
2019-04-11T17:12:57.978Z,98198.52
2019-04-11T17:18:45.526Z,98201.66
2019-04-11T17:21:18.747Z,98209.28
2019-04-11T17:23:53.773Z,98212.05
2019-04-11T17:27:47.080Z,98207.78
2019-04-11T17:30:38.626Z,98204.71
2019-04-11T17:33:29.257Z,98210.67
2019-04-11T17:36:06.179Z,98217.80
2019-04-11T17:38:39.122Z,98216.73
2019-04-11T17:41:11.984Z,98219.53
2019-04-11T17:43:46.706Z,98220.30
2019-04-11T17:46:16.460Z,98221.06
2019-04-11T17:48:50.246Z,98223.03
2019-04-11T17:51:20.330Z,98230.03
2019-04-11T17:53:55.552Z,98238.27
2019-04-11T17:56:41.209Z,98233.81
2019-04-11T18:02:36.499Z,98247.81
2019-04-11T18:05:07.996Z,98252.23
2019-04-11T18:07:41.361Z,98253.45
2019-04-11T18:10:12.860Z,98259.50
2019-04-11T18:12:43.909Z,98260.42
2019-04-11T18:15:15.608Z,98264.59
2019-04-11T18:17:46.843Z,98264.27
2019-04-11T18:20:18.657Z,98273.48
2019-04-11T18:26:29.032Z,98277.13
2019-04-11T18:29:00.041Z,98270.02
2019-04-11T18:31:30.868Z,98281.56
2019-04-11T18:34:03.210Z,98283.03
2019-04-11T18:36:37.240Z,98293.53
2019-04-11T18:39:08.604Z,98290.46
2019-04-11T18:41:39.524Z,98297.67
2019-04-11T18:44:10.901Z,98296.58
2019-04-11T18:46:42.697Z,98299.20
2019-04-11T18:49:14.060Z,98300.80
2019-04-11T18:51:45.608Z,98311.69
2019-04-11T18:54:16.503Z,98310.32
2019-04-11T18:56:47.591Z,98315.87
2019-04-11T18:59:18.557Z,98318.55
2019-04-11T19:01:50.006Z,98317.37
2019-04-11T19:04:31.786Z,98317.77
2019-04-11T19:06:54.414Z,98323.38
2019-04-11T19:09:25.266Z,98323.18
2019-04-11T19:12:00.043Z,98329.56
2019-04-11T19:14:30.845Z,98335.11
2019-04-11T19:17:02.073Z,98329.75
2019-04-11T19:19:34.515Z,98333.06
2019-04-11T19:22:06.682Z,98333.09
2019-04-11T19:24:42.497Z,98334.00
2019-04-11T19:27:58.255Z,98334.16
2019-04-11T19:30:31.069Z,98345.81
2019-04-11T19:39:06.467Z,98340.27
2019-04-11T19:41:48.103Z,98342.52
2019-04-11T19:44:21.357Z,98345.34
2019-04-11T19:47:58.295Z,98346.73
2019-04-11T19:50:30.987Z,98340.58
2019-04-11T19:54:17.090Z,98340.37
2019-04-11T19:57:04.947Z,98345.04
2019-04-11T20:03:10.119Z,98332.06
2019-04-11T20:09:11.808Z,98337.06
2019-04-11T20:11:44.933Z,98337.72
2019-04-11T20:14:18.361Z,98337.20
2019-04-11T20:16:52.582Z,98338.85
2019-04-11T20:19:27.350Z,98332.58
2019-04-11T20:22:02.765Z,98336.83
2019-04-11T20:24:54.792Z,98333.04
2019-04-11T20:27:39.829Z,98336.23
2019-04-11T20:30:53.163Z,98338.22
2019-04-11T20:33:27.393Z,98338.06
2019-04-11T20:35:58.960Z,98335.44
2019-04-11T20:38:31.535Z,98332.37
2019-04-11T20:44:37.323Z,98342.69
2019-04-11T20:47:40.317Z,98341.52
2019-04-11T20:50:14.593Z,98340.05
2019-04-11T20:52:47.104Z,98340.42
2019-04-11T20:56:24.186Z,98342.74
2019-04-11T20:58:54.358Z,98341.06
2019-04-11T21:01:28.761Z,98347.21
2019-04-11T21:04:06.066Z,98348.28
2019-04-11T21:06:41.464Z,98347.09
2019-04-11T21:09:19.563Z,98350.45
2019-04-11T21:15:06.601Z,98344.77
2019-04-11T21:18:30.712Z,98348.77
2019-04-11T21:21:12.692Z,98347.60
2019-04-11T21:29:14.386Z,98354.95
2019-04-11T21:31:56.604Z,98356.39
2019-04-11T21:34:37.880Z,98362.40
2019-04-11T21:37:13.921Z,98355.13
2019-04-11T21:45:26.815Z,98361.45
2019-04-11T21:51:03.976Z,98370.86
2019-04-11T21:53:36.732Z,98368.39
2019-04-11T21:56:11.138Z,98371.20
2019-04-11T21:58:49.914Z,98371.14
2019-04-11T22:01:21.960Z,98374.59
2019-04-11T22:12:07.659Z,98377.13
2019-04-11T22:14:41.344Z,98374.83
2019-04-11T22:17:15.923Z,98372.43
2019-04-11T22:19:50.123Z,98371.98
2019-04-11T22:22:39.859Z,98368.53
2019-04-11T22:25:18.326Z,98374.18
2019-04-11T22:27:51.051Z,98385.35
2019-04-11T22:30:26.009Z,98374.44
2019-04-11T22:33:24.842Z,98383.25
2019-04-11T22:35:59.340Z,98384.36
2019-04-11T22:41:57.991Z,98377.91
2019-04-11T22:47:12.668Z,98381.03
2019-04-11T22:50:17.823Z,98384.10
2019-04-11T22:53:12.818Z,98385.64
2019-04-11T22:55:41.335Z,98390.62
2019-04-11T23:02:00.761Z,98390.41
2019-04-11T23:04:54.907Z,98385.95
2019-04-11T23:07:29.681Z,98381.11
2019-04-11T23:12:46.536Z,98381.18
2019-04-11T23:15:22.572Z,98376.15
2019-04-11T23:18:35.837Z,98378.01
2019-04-11T23:21:08.717Z,98382.87
2019-04-11T23:23:49.538Z,98384.06
2019-04-11T23:26:22.682Z,98385.69
2019-04-11T23:28:56.776Z,98385.47
2019-04-11T23:31:29.560Z,98391.33
2019-04-11T23:34:01.392Z,98392.70
2019-04-11T23:36:32.741Z,98395.63
2019-04-11T23:39:05.982Z,98391.73
2019-04-11T23:44:20.324Z,98386.73
2019-04-11T23:46:51.995Z,98389.77
2019-04-11T23:49:25.225Z,98393.22
2019-04-11T23:51:56.548Z,98392.51
2019-04-11T23:54:29.254Z,98389.33
2019-04-11T23:57:01.079Z,98390.21
2019-04-11T23:59:32.811Z,98383.50
